Santa Fe, Tennessee
Current Conditions -  °F | °C
As of 8:35 PM on Tuesday 21 Oct 2014 (Local Time) from KMRC Reporting Station
Clear Clear  
Wind Chill: 55°   Ceiling: Unl
Heat Index: 55°   Visibility: 10mi
Dew Point: 52°   Wind: 3mph
Humidity: 88%   Direction: 340°NNW
Pressure: 30.07"   Gusts: NA
Location:  35.73°N, 87.13°W
Report Text: KMRC 220135Z AUTO 34003KT 10SM CLR 13/11 A3007 RMK
Loading
Personal Weather Stations






























Interactive Weather Map
Tropical Storm Tracking
New forecast layout! Learn more

10-Day Weather Forecast

Advertisements
Track Severe Weather on mobile